Time;durP1;ratioP1;P1;durP2;ratioP2;P2;SDS_P1;SDS_P2;PMS_P1;PMS_P2;Temp;Humidity;BMP_temperature;BMP_pressure;BME280_temperature;BME280_humidity;BME280_pressure;Samples;Min_cycle;Max_cycle;Signal;HPM_P1;HPM_P2
2023/03/05 00:00:05;;;;;;;11.35;2.30;;;6.40;99.90;;;;;;5011084;28;20436;-62
2023/03/05 00:02:31;;;;;;;11.95;1.70;;;6.20;99.90;;;;;;4997923;28;20042;-62
2023/03/05 00:04:56;;;;;;;11.05;1.80;;;5.20;99.90;;;;;;5009387;28;20041;-62
2023/03/05 00:07:22;;;;;;;17.52;2.10;;;6.30;99.90;;;;;;5010884;28;20042;-63
2023/03/05 00:09:47;;;;;;;12.20;2.20;;;5.40;99.90;;;;;;5010215;28;20038;-63
2023/03/05 00:12:13;;;;;;;9.70;2.03;;;6.20;99.90;;;;;;5009159;28;20619;-62
2023/03/05 00:14:39;;;;;;;5.57;1.33;;;5.00;99.90;;;;;;5009673;28;20054;-63
2023/03/05 00:17:04;;;;;;;7.95;1.88;;;6.40;99.90;;;;;;5014592;28;20044;-63
2023/03/05 00:19:30;;;;;;;8.82;1.60;;;5.40;99.90;;;;;;5014110;28;20058;-63
2023/03/05 00:21:56;;;;;;;6.97;1.45;;;6.10;99.90;;;;;;5014044;28;20038;-63
2023/03/05 00:24:21;;;;;;;3.58;1.25;;;5.00;99.90;;;;;;5013874;28;20041;-63
2023/03/05 00:26:47;;;;;;;5.78;1.60;;;4.90;99.90;;;;;;5014808;28;20041;-64
2023/03/05 00:29:18;;;;;;;5.00;1.20;;;6.00;99.90;;;;;;5013360;28;20048;-63
2023/03/05 00:31:43;;;;;;;5.82;1.38;;;5.40;99.90;;;;;;5012538;28;20080;-63
2023/03/05 00:34:12;;;;;;;6.35;1.40;;;6.00;99.90;;;;;;5012319;28;20045;-63
2023/03/05 00:36:43;;;;;;;5.32;1.38;;;5.00;99.90;;;;;;5014351;28;20030;-63
2023/03/05 00:39:10;;;;;;;6.70;1.70;;;6.10;99.90;;;;;;5012145;28;20050;-63
2023/03/05 00:41:36;;;;;;;4.85;1.10;;;6.10;85.20;;;;;;5029288;28;20087;-63
2023/03/05 00:44:02;;;;;;;3.38;1.33;;;5.60;40.20;;;;;;5014139;28;20053;-63
2023/03/05 00:46:28;;;;;;;3.28;1.02;;;5.90;7.70;;;;;;5013093;28;20337;-63
2023/03/05 00:48:54;;;;;;;5.47;1.42;;;5.20;1.00;;;;;;5013541;28;20396;-63
2023/03/05 00:51:20;;;;;;;10.77;1.60;;;5.20;32.80;;;;;;5013910;28;20452;-63
2023/03/05 00:53:46;;;;;;;9.70;1.77;;;5.90;97.20;;;;;;5013678;28;20057;-63
2023/03/05 00:56:11;;;;;;;7.55;1.65;;;5.10;99.90;;;;;;5013841;28;20045;-63
2023/03/05 00:58:37;;;;;;;11.68;1.77;;;6.10;99.90;;;;;;5012342;28;20034;-63
2023/03/05 01:01:04;;;;;;;7.78;2.10;;;6.00;99.90;;;;;;5011369;28;20630;-63
2023/03/05 01:03:31;;;;;;;15.75;1.83;;;4.80;99.90;;;;;;5008283;28;20041;-63
2023/03/05 01:05:59;;;;;;;15.60;1.70;;;4.90;99.90;;;;;;5012860;28;20083;-63
2023/03/05 01:08:25;;;;;;;10.02;2.03;;;5.20;99.90;;;;;;5013614;28;20040;-63
2023/03/05 01:10:51;;;;;;;7.90;1.65;;;4.90;99.90;;;;;;5013049;28;20399;-63
2023/03/05 01:13:17;;;;;;;16.50;2.58;;;5.60;99.90;;;;;;5013224;28;20038;-63
2023/03/05 01:15:42;;;;;;;12.43;2.35;;;4.70;1.00;;;;;;5012057;28;20038;-63
2023/03/05 01:18:08;;;;;;;19.80;2.50;;;6.00;1.00;;;;;;5012216;28;20038;-63
2023/03/05 01:20:34;;;;;;;13.30;2.92;;;5.90;1.00;;;;;;5012165;28;20112;-63
2023/03/05 01:23:00;;;;;;;11.77;2.20;;;5.60;2.00;;;;;;5012894;28;20053;-63
2023/03/05 01:25:27;;;;;;;7.22;1.95;;;4.90;48.60;;;;;;5013023;28;20038;-63
2023/03/05 01:27:52;;;;;;;7.03;1.40;;;5.20;1.00;;;;;;5012882;28;20034;-63
2023/03/05 01:30:18;;;;;;;5.60;1.38;;;5.80;1.00;;;;;;5012730;28;20033;-63
2023/03/05 01:32:44;;;;;;;8.98;1.73;;;6.40;1.00;;;;;;5011912;28;20120;-63
2023/03/05 01:35:18;;;;;;;6.35;1.40;;;6.30;1.00;;;;;;5013322;28;20686;-62
2023/03/05 01:37:44;;;;;;;9.23;1.88;;;6.30;1.00;;;;;;5013440;28;20077;-62
2023/03/05 01:40:12;;;;;;;8.35;1.58;;;5.80;1.00;;;;;;5009743;28;20092;-63
2023/03/05 01:42:38;;;;;;;3.47;1.30;;;6.20;1.00;;;;;;5012930;28;20052;-63
2023/03/05 01:45:09;;;;;;;6.82;1.65;;;6.00;15.30;;;;;;5012680;28;20399;-63
2023/03/05 01:47:36;;;;;;;7.30;1.27;;;6.10;71.10;;;;;;5013234;28;20073;-63
2023/03/05 01:50:03;;;;;;;8.00;1.45;;;6.10;91.30;;;;;;5011728;28;20038;-63
2023/03/05 01:52:33;;;;;;;3.70;1.35;;;5.00;99.90;;;;;;4993639;28;20575;-63
2023/03/05 01:55:02;;;;;;;5.90;1.33;;;5.80;99.90;;;;;;5002440;28;20128;-62
2023/03/05 01:57:35;;;;;;;8.38;1.27;;;4.50;99.90;;;;;;5011848;28;20488;-62
2023/03/05 02:00:08;;;;;;;6.65;1.00;;;4.60;99.90;;;;;;5012276;28;20491;-63
2023/03/05 02:02:34;;;;;;;7.32;1.30;;;6.10;99.90;;;;;;5006637;28;20046;-63
2023/03/05 02:05:05;;;;;;;7.45;1.33;;;5.10;99.90;;;;;;5012820;28;20057;-63
2023/03/05 02:07:32;;;;;;;7.70;1.30;;;5.50;99.90;;;;;;5011521;28;20041;-63
2023/03/05 02:09:58;;;;;;;9.57;1.27;;;4.80;99.90;;;;;;5012038;28;20034;-63
2023/03/05 02:12:24;;;;;;;7.30;1.30;;;4.50;99.90;;;;;;5012489;28;20176;-63
2023/03/05 02:14:57;;;;;;;7.43;1.27;;;5.10;99.90;;;;;;5012333;28;20569;-63
2023/03/05 02:17:25;;;;;;;8.93;2.10;;;4.70;99.90;;;;;;5010538;28;20045;-63
2023/03/05 02:19:54;;;;;;;6.50;1.25;;;4.60;99.90;;;;;;5011274;28;20057;-62
2023/03/05 02:22:22;;;;;;;9.05;1.30;;;4.90;99.90;;;;;;5011798;28;20050;-63
2023/03/05 02:24:48;;;;;;;8.65;1.52;;;4.10;99.90;;;;;;5012005;28;20033;-63
2023/03/05 02:27:14;;;;;;;10.20;1.70;;;5.10;99.90;;;;;;5011255;28;20153;-62
2023/03/05 02:29:45;;;;;;;10.55;1.80;;;5.60;99.90;;;;;;5011930;28;20041;-62
2023/03/05 02:32:11;;;;;;;9.13;1.83;;;4.80;99.90;;;;;;5012009;28;20053;-63
2023/03/05 02:34:37;;;;;;;5.68;1.48;;;5.60;99.90;;;;;;5011543;28;20038;-63
2023/03/05 02:37:04;;;;;;;5.68;1.20;;;5.20;1.00;;;;;;5011876;28;20404;-63
2023/03/05 02:39:30;;;;;;;8.57;1.90;;;5.80;1.00;;;;;;5011698;28;20069;-63
2023/03/05 02:41:56;;;;;;;10.07;1.67;;;5.00;2.00;;;;;;5011776;28;20506;-62
2023/03/05 02:44:22;;;;;;;12.32;2.10;;;4.70;59.40;;;;;;5011272;28;20034;-63
2023/03/05 02:46:48;;;;;;;8.50;2.17;;;6.80;99.90;;;;;;5027580;28;20046;-63
2023/03/05 02:49:13;;;;;;;10.07;1.85;;;4.70;99.90;;;;;;5011735;28;20042;-63
2023/03/05 02:51:39;;;;;;;6.22;1.60;;;6.10;99.90;;;;;;5011387;28;20052;-63
2023/03/05 02:54:05;;;;;;;7.82;1.52;;;4.70;99.90;;;;;;5010387;28;20088;-63
2023/03/05 02:56:31;;;;;;;7.05;1.60;;;5.20;99.90;;;;;;5011604;28;20037;-63
2023/03/05 02:58:56;;;;;;;4.88;1.13;;;5.20;99.90;;;;;;5010041;28;20483;-63
2023/03/05 03:01:22;;;;;;;6.20;1.50;;;6.00;99.90;;;;;;5011546;28;20057;-63
2023/03/05 03:03:47;;;;;;;4.90;1.52;;;6.00;99.90;;;;;;5010538;28;20037;-63
2023/03/05 03:06:13;;;;;;;7.57;1.65;;;6.20;99.90;;;;;;5011379;28;20084;-63
2023/03/05 03:08:39;;;;;;;8.82;1.65;;;4.60;99.90;;;;;;5011529;28;20033;-63
2023/03/05 03:11:11;;;;;;;9.32;1.55;;;5.60;99.90;;;;;;5010937;28;20036;-63
2023/03/05 03:13:37;;;;;;;7.72;1.83;;;5.60;99.90;;;;;;5010459;28;20042;-63
2023/03/05 03:16:12;;;;;;;7.82;1.52;;;5.80;99.90;;;;;;5011463;28;20396;-62
2023/03/05 03:18:38;;;;;;;11.07;1.70;;;5.60;99.90;;;;;;5009476;28;20076;-63
2023/03/05 03:21:04;;;;;;;10.27;1.85;;;4.50;99.90;;;;;;5010899;28;20065;-62
2023/03/05 03:23:30;;;;;;;8.60;1.73;;;4.80;99.90;;;;;;5011345;28;20103;-63
2023/03/05 03:25:56;;;;;;;5.05;1.50;;;5.10;99.90;;;;;;5009474;28;20034;-63
2023/03/05 03:28:22;;;;;;;8.52;2.05;;;6.00;99.90;;;;;;5010919;28;20038;-63
2023/03/05 03:30:47;;;;;;;5.60;1.70;;;4.40;99.90;;;;;;5011229;28;20045;-63
2023/03/05 03:33:13;;;;;;;5.55;1.45;;;5.90;99.90;;;;;;5011347;28;20085;-63
2023/03/05 03:35:39;;;;;;;7.78;1.30;;;5.80;99.90;;;;;;5010517;28;20061;-63
2023/03/05 03:38:04;;;;;;;7.32;1.20;;;4.20;99.90;;;;;;5010253;28;20030;-63
2023/03/05 03:40:30;;;;;;;5.68;1.17;;;4.40;48.20;;;;;;5010639;28;20030;-63
2023/03/05 03:42:56;;;;;;;10.55;1.83;;;5.80;47.70;;;;;;5010768;28;20404;-63
2023/03/05 03:45:21;;;;;;;6.70;1.52;;;4.20;32.40;;;;;;5010427;28;20045;-63
2023/03/05 03:47:48;;;;;;;10.52;1.30;;;4.90;1.00;;;;;;5009239;28;20046;-63
2023/03/05 03:50:14;;;;;;;3.83;1.30;;;4.80;1.00;;;;;;5010512;28;20051;-62
2023/03/05 03:52:39;;;;;;;5.22;1.40;;;4.50;1.00;;;;;;5010376;28;20038;-63
2023/03/05 03:55:05;;;;;;;6.50;1.45;;;4.40;1.00;;;;;;5011251;28;20033;-62
2023/03/05 03:57:35;;;;;;;10.63;2.22;;;4.90;1.00;;;;;;5009554;28;20107;-63
2023/03/05 04:00:00;;;;;;;4.60;1.17;;;5.70;1.00;;;;;;5010595;28;20475;-63
2023/03/05 04:02:26;;;;;;;6.50;1.45;;;5.80;1.00;;;;;;5008347;28;20045;-62
2023/03/05 04:04:52;;;;;;;7.22;1.58;;;5.90;1.00;;;;;;4991252;28;20030;-63
2023/03/05 04:07:18;;;;;;;7.22;1.55;;;5.50;21.40;;;;;;4994762;28;20049;-63
2023/03/05 04:09:44;;;;;;;6.82;1.23;;;6.10;43.50;;;;;;5010611;28;20447;-63
2023/03/05 04:12:10;;;;;;;10.13;1.80;;;4.50;65.00;;;;;;5009461;28;20049;-63
2023/03/05 04:14:36;;;;;;;4.65;1.48;;;5.90;23.60;;;;;;5009685;28;20546;-63
2023/03/05 04:17:02;;;;;;;4.53;1.10;;;4.50;20.50;;;;;;5010518;28;20160;-63
2023/03/05 04:19:29;;;;;;;3.17;1.05;;;5.80;1.00;;;;;;5010568;28;20085;-63
2023/03/05 04:21:56;;;;;;;6.55;1.42;;;4.90;99.90;;;;;;5010119;28;20045;-63
2023/03/05 04:24:22;;;;;;;5.28;1.30;;;4.50;99.90;;;;;;5010962;28;20048;-63
2023/03/05 04:26:47;;;;;;;5.20;1.35;;;4.90;99.90;;;;;;5009694;28;20042;-63
2023/03/05 04:29:13;;;;;;;6.97;1.50;;;5.20;99.90;;;;;;5010573;28;20034;-63
2023/03/05 04:31:38;;;;;;;3.55;1.30;;;5.70;99.90;;;;;;5010341;28;20089;-63
2023/03/05 04:34:04;;;;;;;7.63;1.98;;;4.40;99.90;;;;;;5010722;28;20045;-63
2023/03/05 04:36:29;;;;;;;12.73;1.73;;;5.70;99.90;;;;;;5024624;28;20042;-63
2023/03/05 04:38:55;;;;;;;6.18;1.40;;;5.80;99.90;;;;;;5010775;28;20042;-63
2023/03/05 04:41:21;;;;;;;11.90;1.92;;;4.90;99.90;;;;;;5010007;28;20056;-63
2023/03/05 04:43:46;;;;;;;7.53;1.42;;;5.20;1.00;;;;;;5010567;28;20113;-63
2023/03/05 04:46:12;;;;;;;6.50;1.58;;;4.20;1.00;;;;;;5009201;28;20457;-63
2023/03/05 04:48:37;;;;;;;7.25;1.40;;;4.50;1.00;;;;;;5010203;28;20038;-63
2023/03/05 04:51:03;;;;;;;9.93;1.67;;;5.80;1.00;;;;;;5009971;28;20038;-63
2023/03/05 04:53:29;;;;;;;9.07;1.70;;;4.20;1.00;;;;;;5010178;28;20518;-63
2023/03/05 04:55:55;;;;;;;16.13;2.05;;;4.20;9.40;;;;;;5009891;28;20121;-63
2023/03/05 04:58:22;;;;;;;12.32;1.50;;;5.30;53.70;;;;;;5009987;28;20033;-63
2023/03/05 05:00:47;;;;;;;8.65;1.75;;;4.80;99.90;;;;;;5010844;28;20081;-63
2023/03/05 05:03:13;;;;;;;14.45;2.20;;;5.90;99.90;;;;;;5012423;28;20135;-63
2023/03/05 05:05:39;;;;;;;8.00;1.60;;;4.90;99.90;;;;;;5013208;28;20033;-63
2023/03/05 05:08:04;;;;;;;9.48;1.50;;;5.80;99.90;;;;;;5013445;28;20157;-63
2023/03/05 05:10:30;;;;;;;7.95;1.67;;;4.10;99.90;;;;;;5013158;28;20563;-63
2023/03/05 05:12:56;;;;;;;13.98;2.45;;;5.40;99.90;;;;;;5012214;28;20042;-63
2023/03/05 05:15:22;;;;;;;11.70;2.05;;;4.80;99.90;;;;;;5012123;28;20072;-63
2023/03/05 05:17:47;;;;;;;13.20;2.45;;;4.20;99.90;;;;;;5012238;28;20045;-63
2023/03/05 05:20:15;;;;;;;12.13;1.83;;;5.40;1.00;;;;;;5013088;28;20193;-63
2023/03/05 05:22:41;;;;;;;10.20;1.90;;;4.70;1.00;;;;;;5013081;28;20069;-63
2023/03/05 05:25:08;;;;;;;7.93;1.73;;;5.80;1.00;;;;;;5012952;28;20380;-63
2023/03/05 05:27:34;;;;;;;6.57;1.75;;;5.30;1.00;;;;;;5013017;28;20041;-63
2023/03/05 05:29:59;;;;;;;16.48;2.33;;;4.40;99.90;;;;;;5013449;28;20320;-63
2023/03/05 05:32:25;;;;;;;8.05;1.10;;;4.70;74.80;;;;;;5027277;28;20045;-63
2023/03/05 05:34:55;;;;;;;4.43;1.58;;;4.50;1.00;;;;;;5013461;28;20053;-63
2023/03/05 05:37:21;;;;;;;5.45;1.30;;;4.50;1.00;;;;;;5012452;28;20566;-63
2023/03/05 05:39:49;;;;;;;8.65;1.25;;;4.80;99.90;;;;;;5011914;28;20084;-63
2023/03/05 05:42:24;;;;;;;7.57;1.40;;;4.50;99.90;;;;;;5012201;28;20530;-63
2023/03/05 05:44:50;;;;;;;6.53;1.30;;;4.40;94.00;;;;;;5012488;28;20048;-63
2023/03/05 05:47:16;;;;;;;8.82;1.60;;;5.10;1.20;;;;;;5011853;28;20459;-63
2023/03/05 05:49:42;;;;;;;5.75;1.60;;;4.50;1.00;;;;;;5012164;28;20117;-63
2023/03/05 05:52:08;;;;;;;6.55;1.60;;;4.60;1.00;;;;;;5013070;28;20551;-63
2023/03/05 05:54:34;;;;;;;4.10;1.50;;;4.40;99.90;;;;;;5013287;28;20038;-63
2023/03/05 05:56:59;;;;;;;9.50;1.63;;;5.20;99.90;;;;;;5012367;28;20562;-63
2023/03/05 05:59:25;;;;;;;6.93;1.83;;;4.80;99.90;;;;;;5012977;28;20052;-63
2023/03/05 06:01:51;;;;;;;9.00;1.50;;;4.30;99.90;;;;;;5012065;28;20495;-63
2023/03/05 06:04:16;;;;;;;10.23;1.70;;;5.30;99.90;;;;;;5012459;28;20034;-63
2023/03/05 06:06:42;;;;;;;7.63;1.73;;;5.50;99.90;;;;;;5012530;28;20038;-63
2023/03/05 06:09:07;;;;;;;8.38;1.52;;;4.20;99.90;;;;;;5011039;28;20030;-63
2023/03/05 06:11:33;;;;;;;10.77;1.55;;;5.50;99.90;;;;;;5011887;28;20050;-63
2023/03/05 06:14:01;;;;;;;11.05;1.52;;;5.00;99.90;;;;;;5011761;28;20073;-63
2023/03/05 06:16:27;;;;;;;12.90;1.95;;;5.40;99.90;;;;;;5010411;28;20038;-64
2023/03/05 06:18:53;;;;;;;9.48;1.90;;;3.90;99.90;;;;;;5011085;28;20038;-62
2023/03/05 06:21:19;;;;;;;9.98;1.65;;;5.40;99.90;;;;;;5012496;28;20614;-63
2023/03/05 06:23:46;;;;;;;9.15;1.95;;;5.00;99.90;;;;;;5011492;28;20096;-63
2023/03/05 06:26:14;;;;;;;9.77;2.22;;;5.20;99.90;;;;;;5011491;28;20096;-63
2023/03/05 06:28:40;;;;;;;9.90;1.80;;;4.10;99.90;;;;;;5011569;28;20046;-63
2023/03/05 06:31:11;;;;;;;13.43;2.05;;;5.50;99.90;;;;;;5012167;28;20449;-63
2023/03/05 06:33:38;;;;;;;10.15;2.08;;;5.60;99.90;;;;;;5012102;28;20030;-63
2023/03/05 06:36:08;;;;;;;11.88;1.85;;;4.50;99.90;;;;;;5011579;28;20460;-63
2023/03/05 06:38:35;;;;;;;8.75;1.60;;;5.50;99.90;;;;;;5011703;28;20333;-63
2023/03/05 06:41:08;;;;;;;6.85;1.60;;;4.00;99.90;;;;;;5008416;28;20377;-63
2023/03/05 06:43:34;;;;;;;8.98;1.42;;;4.00;99.90;;;;;;5011074;28;20045;-62
2023/03/05 06:46:09;;;;;;;9.73;1.52;;;5.30;99.90;;;;;;5026864;28;20046;-63
2023/03/05 06:48:35;;;;;;;9.73;2.22;;;5.40;99.90;;;;;;5011186;28;20475;-63
2023/03/05 06:51:00;;;;;;;4.57;1.30;;;3.80;99.90;;;;;;5012213;28;20109;-62
2023/03/05 06:53:27;;;;;;;11.63;1.83;;;4.70;99.90;;;;;;5011719;28;20034;-63
2023/03/05 06:55:53;;;;;;;10.45;2.10;;;5.10;99.90;;;;;;5012002;28;20034;-63
2023/03/05 06:58:19;;;;;;;8.85;2.38;;;4.10;1.00;;;;;;5011594;28;20042;-63
2023/03/05 07:00:45;;;;;;;7.35;1.42;;;5.30;1.00;;;;;;5011436;28;20103;-63
2023/03/05 07:03:11;;;;;;;5.40;1.33;;;3.80;1.00;;;;;;5011721;28;20049;-63
2023/03/05 07:05:40;;;;;;;6.55;1.77;;;4.10;1.00;;;;;;5011604;28;20040;-63
2023/03/05 07:08:06;;;;;;;10.55;2.00;;;5.10;1.00;;;;;;5010013;28;20042;-63
2023/03/05 07:10:37;;;;;;;10.98;1.83;;;4.00;1.00;;;;;;5011227;28;20075;-63
2023/03/05 07:13:03;;;;;;;6.90;1.50;;;5.10;1.00;;;;;;5011300;28;20041;-63
2023/03/05 07:15:28;;;;;;;12.52;2.33;;;4.20;1.00;;;;;;5011427;28;20511;-63
2023/03/05 07:17:55;;;;;;;12.02;2.47;;;4.30;1.00;;;;;;5011256;28;20042;-63
2023/03/05 07:20:21;;;;;;;13.15;1.88;;;5.20;1.00;;;;;;5010627;28;20499;-63
2023/03/05 07:22:46;;;;;;;10.70;2.10;;;4.30;1.00;;;;;;5010353;28;20092;-63
2023/03/05 07:25:12;;;;;;;15.13;2.20;;;4.40;1.00;;;;;;5011123;28;20077;-63
2023/03/05 07:27:38;;;;;;;13.00;1.95;;;4.60;1.00;;;;;;5006420;28;20026;-63
2023/03/05 07:30:04;;;;;;;8.27;1.90;;;5.70;1.00;;;;;;5004882;28;20042;-63
2023/03/05 07:32:31;;;;;;;8.45;1.80;;;5.40;99.90;;;;;;5011333;28;20037;-63
2023/03/05 07:34:56;;;;;;;12.18;2.05;;;6.20;99.90;;;;;;5011571;28;20052;-63
2023/03/05 07:37:22;;;;;;;9.30;1.70;;;6.10;99.90;;;;;;5008463;28;20045;-63
2023/03/05 07:39:48;;;;;;;11.63;2.53;;;6.10;99.90;;;;;;5010511;28;20436;-63
2023/03/05 07:42:13;;;;;;;13.40;1.98;;;5.30;99.90;;;;;;5008851;28;20412;-63
2023/03/05 07:44:39;;;;;;;10.88;2.08;;;6.00;99.90;;;;;;5011345;28;20030;-63
2023/03/05 07:47:05;;;;;;;9.95;1.85;;;6.10;99.90;;;;;;5010370;28;20044;-63
2023/03/05 07:49:30;;;;;;;15.30;1.95;;;5.70;93.60;;;;;;5023750;28;20507;-63
2023/03/05 07:51:56;;;;;;;11.20;1.73;;;5.40;37.50;;;;;;5001846;28;20042;-63
2023/03/05 07:54:21;;;;;;;6.88;1.70;;;6.50;4.30;;;;;;5001712;28;20038;-63
2023/03/05 07:56:47;;;;;;;9.18;2.55;;;5.80;1.00;;;;;;5004177;28;20061;-63
2023/03/05 07:59:13;;;;;;;11.10;1.98;;;5.50;1.00;;;;;;5003382;28;20053;-63
2023/03/05 08:01:39;;;;;;;6.28;1.70;;;5.50;1.00;;;;;;5008922;28;20037;-63
2023/03/05 08:04:09;;;;;;;7.32;1.38;;;6.70;1.00;;;;;;5009402;28;20044;-63
2023/03/05 08:06:39;;;;;;;12.13;2.22;;;5.80;1.00;;;;;;5010292;28;20117;-63
2023/03/05 08:09:05;;;;;;;8.93;1.60;;;6.10;1.00;;;;;;5007085;28;20053;-63
2023/03/05 08:11:30;;;;;;;8.48;1.80;;;6.60;1.00;;;;;;5006911;28;20189;-63
2023/03/05 08:13:58;;;;;;;6.75;1.60;;;5.90;99.90;;;;;;5003977;28;20044;-63
2023/03/05 08:16:25;;;;;;;11.82;1.70;;;6.50;99.90;;;;;;5007226;28;20525;-63
2023/03/05 08:18:55;;;;;;;9.13;1.75;;;6.70;99.90;;;;;;5008410;28;20134;-62
2023/03/05 08:21:25;;;;;;;8.95;1.50;;;6.30;99.90;;;;;;5009030;28;20046;-63
2023/03/05 08:23:51;;;;;;;9.95;1.73;;;6.00;99.90;;;;;;5008970;28;20029;-63
2023/03/05 08:26:21;;;;;;;12.00;2.00;;;6.50;99.90;;;;;;5003600;28;20022;-63
2023/03/05 08:28:47;;;;;;;9.82;2.05;;;6.10;99.90;;;;;;5005964;28;20416;-63
2023/03/05 08:31:14;;;;;;;12.40;2.47;;;6.10;99.90;;;;;;5001823;28;20042;-63
2023/03/05 08:33:40;;;;;;;10.10;2.10;;;6.10;76.90;;;;;;5002374;28;20033;-63
2023/03/05 08:36:07;;;;;;;12.40;1.92;;;6.90;42.70;;;;;;5008853;28;20034;-63
2023/03/05 08:38:33;;;;;;;18.83;1.90;;;6.90;19.30;;;;;;5011197;28;20408;-63
2023/03/05 08:40:59;;;;;;;12.05;1.88;;;6.20;11.10;;;;;;5009912;28;20040;-63
2023/03/05 08:43:24;;;;;;;11.15;1.95;;;6.90;1.00;;;;;;5012639;28;20073;-63
2023/03/05 08:45:52;;;;;;;11.63;2.40;;;7.00;1.00;;;;;;5010996;28;20076;-63
2023/03/05 08:48:18;;;;;;;9.25;1.90;;;6.40;1.00;;;;;;5012942;28;20038;-63
2023/03/05 08:50:44;;;;;;;10.20;2.10;;;6.90;1.00;;;;;;5012735;28;20510;-63
2023/03/05 08:53:10;;;;;;;13.40;2.45;;;6.40;1.00;;;;;;5011830;28;20125;-63
2023/03/05 08:55:36;;;;;;;14.65;2.40;;;7.20;1.00;;;;;;5011379;28;20033;-63
2023/03/05 08:58:02;;;;;;;9.40;1.50;;;6.90;1.00;;;;;;5011291;28;20471;-63
2023/03/05 09:00:27;;;;;;;10.40;1.90;;;7.20;1.00;;;;;;5010794;28;20120;-63
2023/03/05 09:02:53;;;;;;;4.78;1.35;;;7.10;1.00;;;;;;5010801;28;20041;-63
2023/03/05 09:05:19;;;;;;;7.53;1.95;;;6.80;99.90;;;;;;5011055;28;20040;-63
2023/03/05 09:07:44;;;;;;;9.40;2.15;;;6.90;99.90;;;;;;5007699;28;20046;-65
2023/03/05 09:10:12;;;;;;;8.88;1.90;;;7.40;99.90;;;;;;5006656;28;20176;-66
2023/03/05 09:12:38;;;;;;;6.35;1.60;;;7.50;99.90;;;;;;5009181;28;20046;-66
2023/03/05 09:15:08;;;;;;;8.10;1.95;;;7.40;99.90;;;;;;5009635;28;20515;-63
2023/03/05 09:17:35;;;;;;;8.02;1.77;;;7.10;99.90;;;;;;5010805;28;20041;-62
2023/03/05 09:20:02;;;;;;;5.97;1.88;;;7.30;99.90;;;;;;4972135;28;1098653;-64
2023/03/05 09:22:28;;;;;;;10.18;1.95;;;7.90;99.90;;;;;;5010328;28;20042;-65
2023/03/05 09:24:54;;;;;;;12.18;2.08;;;7.10;99.90;;;;;;5010739;28;20029;-65
2023/03/05 09:27:20;;;;;;;11.13;1.83;;;7.60;99.90;;;;;;5009040;28;20068;-66
2023/03/05 09:29:45;;;;;;;8.85;2.08;;;7.30;99.90;;;;;;5027155;28;20088;-65
2023/03/05 09:32:11;;;;;;;8.15;2.00;;;7.40;99.90;;;;;;5009397;28;20109;-65
2023/03/05 09:34:37;;;;;;;5.53;1.80;;;7.50;99.90;;;;;;5012059;28;20042;-65
2023/03/05 09:37:03;;;;;;;11.15;1.90;;;7.80;99.90;;;;;;5012465;28;20037;-65
2023/03/05 09:39:29;;;;;;;13.38;1.98;;;7.60;99.90;;;;;;5012757;28;20089;-65
2023/03/05 09:42:33;;;;;;;7.25;1.75;;;7.50;99.90;;;;;;5012148;28;20077;-65
2023/03/05 09:44:59;;;;;;;9.20;2.08;;;7.50;99.90;;;;;;4995180;28;20081;-65
2023/03/05 09:47:53;;;;;;;8.77;1.85;;;7.30;99.90;;;;;;5011938;28;20034;-65
2023/03/05 09:50:42;;;;;;;10.05;1.90;;;7.50;99.90;;;;;;5011132;28;20302;-65
2023/03/05 09:53:14;;;;;;;11.23;1.77;;;7.40;99.90;;;;;;5011475;28;20046;-68
2023/03/05 09:55:47;;;;;;;9.75;1.92;;;7.20;99.90;;;;;;5010672;28;20046;-69
2023/03/05 09:58:18;;;;;;;9.82;2.10;;;7.20;99.90;;;;;;5010428;28;20075;-68
2023/03/05 10:00:48;;;;;;;14.27;2.30;;;7.10;99.90;;;;;;5011086;28;20034;-69
2023/03/05 10:03:21;;;;;;;8.85;1.85;;;7.40;99.90;;;;;;5011626;28;20070;-68
2023/03/05 10:06:24;;;;;;;8.02;1.60;;;7.50;99.90;;;;;;5012572;28;20108;-69
2023/03/05 10:09:08;;;;;;;11.77;2.17;;;7.20;99.90;;;;;;4936672;28;20044;-67
2023/03/05 10:11:39;;;;;;;7.55;1.73;;;7.40;99.90;;;;;;5017524;28;20054;-68
2023/03/05 10:14:12;;;;;;;20.77;2.83;;;7.10;99.90;;;;;;5007619;28;20042;-68
2023/03/05 10:16:56;;;;;;;10.65;1.75;;;7.10;99.90;;;;;;5009770;28;20491;-67
2023/03/05 10:19:47;;;;;;;8.95;2.15;;;7.60;99.90;;;;;;5006090;28;20149;-62
2023/03/05 10:22:22;;;;;;;6.18;1.60;;;7.10;99.90;;;;;;4995967;28;20047;-62
2023/03/05 10:25:16;;;;;;;5.43;1.60;;;7.50;99.90;;;;;;5008415;28;20088;-62
2023/03/05 10:28:20;;;;;;;9.88;1.50;;;7.30;99.90;;;;;;5010533;28;20049;-62
2023/03/05 10:31:17;;;;;;;10.75;1.90;;;7.20;99.90;;;;;;5009315;28;20116;-62
2023/03/05 10:34:03;;;;;;;9.02;1.88;;;7.60;99.90;;;;;;5024183;28;20053;-62
2023/03/05 10:36:45;;;;;;;6.78;1.52;;;7.70;99.90;;;;;;5000970;28;20512;-62
2023/03/05 10:39:41;;;;;;;8.52;1.90;;;7.40;99.90;;;;;;5007711;28;20045;-62
2023/03/05 10:42:41;;;;;;;9.18;1.90;;;7.90;99.90;;;;;;5002805;28;20438;-62
2023/03/05 10:45:30;;;;;;;13.93;2.42;;;7.90;99.90;;;;;;5002190;28;20062;-62
2023/03/05 10:48:18;;;;;;;12.85;2.00;;;7.70;99.90;;;;;;5004857;28;20038;-62
2023/03/05 10:50:49;;;;;;;9.00;2.00;;;7.70;99.90;;;;;;5002585;28;20038;-62
2023/03/05 10:53:33;;;;;;;10.57;2.25;;;7.60;99.90;;;;;;5006874;28;20030;-62
2023/03/05 10:56:03;;;;;;;11.77;2.03;;;7.70;99.90;;;;;;5011306;28;20041;-62
2023/03/05 10:58:29;;;;;;;7.35;1.75;;;7.90;99.90;;;;;;5009692;28;20080;-62
2023/03/05 11:01:10;;;;;;;9.70;1.60;;;8.00;99.90;;;;;;5009783;28;20046;-62
2023/03/05 11:03:58;;;;;;;6.22;1.88;;;7.60;99.90;;;;;;5009557;28;20046;-62
2023/03/05 11:06:28;;;;;;;11.75;1.70;;;8.00;99.90;;;;;;5007717;28;20071;-63
2023/03/05 11:08:53;;;;;;;12.48;1.98;;;7.90;99.90;;;;;;5009294;28;20056;-62
2023/03/05 11:11:21;;;;;;;8.35;1.67;;;7.80;99.90;;;;;;5009919;28;20125;-62
2023/03/05 11:13:51;;;;;;;6.88;1.52;;;8.00;99.90;;;;;;5001974;28;20045;-62
2023/03/05 11:16:24;;;;;;;7.55;1.98;;;7.70;99.90;;;;;;4999810;28;20042;-63
2023/03/05 11:19:09;;;;;;;7.50;1.85;;;7.80;99.90;;;;;;5006756;28;20420;-63
2023/03/05 11:21:35;;;;;;;7.70;1.50;;;8.00;99.90;;;;;;5010137;28;20046;-63
2023/03/05 11:24:13;;;;;;;11.32;1.95;;;7.70;99.90;;;;;;5008944;28;20046;-62
2023/03/05 11:26:50;;;;;;;10.90;2.10;;;7.90;99.90;;;;;;5010820;28;20081;-62
2023/03/05 11:29:25;;;;;;;5.68;1.65;;;7.70;99.90;;;;;;5009079;28;20037;-62
2023/03/05 11:31:51;;;;;;;7.35;1.75;;;7.50;99.90;;;;;;5009838;28;20044;-61
2023/03/05 11:34:17;;;;;;;10.07;2.00;;;7.70;99.90;;;;;;5009342;28;20038;-62
2023/03/05 11:36:49;;;;;;;6.53;1.70;;;8.00;99.90;;;;;;5007553;28;20107;-62
2023/03/05 11:39:18;;;;;;;10.52;1.95;;;7.70;99.90;;;;;;5002553;28;20444;-62
2023/03/05 11:41:47;;;;;;;8.55;1.77;;;7.80;99.90;;;;;;5009247;28;20773;-62
2023/03/05 11:44:25;;;;;;;12.43;2.20;;;7.70;99.90;;;;;;5008994;28;20041;-62
2023/03/05 11:47:11;;;;;;;7.85;2.00;;;8.00;99.90;;;;;;5006796;28;20396;-62
2023/03/05 11:49:42;;;;;;;9.38;1.90;;;7.80;99.90;;;;;;4999944;28;20627;-62
2023/03/05 11:52:33;;;;;;;10.05;1.95;;;7.50;99.90;;;;;;5009899;28;20080;-62
2023/03/05 11:55:05;;;;;;;9.90;2.10;;;7.50;99.90;;;;;;5009511;28;20772;-62
2023/03/05 11:57:40;;;;;;;12.20;1.77;;;7.70;99.90;;;;;;5008348;28;20411;-62
2023/03/05 12:00:11;;;;;;;12.82;2.08;;;8.10;99.90;;;;;;5005930;28;20046;-61
2023/03/05 12:02:37;;;;;;;14.35;2.42;;;7.80;99.90;;;;;;5009499;28;20403;-61
2023/03/05 12:05:06;;;;;;;12.43;2.00;;;8.10;99.90;;;;;;5008609;28;20042;-61
2023/03/05 12:07:38;;;;;;;5.55;1.67;;;7.90;99.90;;;;;;5009503;28;20033;-62
2023/03/05 12:10:04;;;;;;;10.30;2.22;;;8.20;99.90;;;;;;5008731;28;20064;-62
2023/03/05 12:12:47;;;;;;;8.32;1.90;;;8.30;99.90;;;;;;5005421;28;20064;-62
2023/03/05 12:15:16;;;;;;;8.50;2.17;;;8.10;99.90;;;;;;5007037;28;20555;-62
2023/03/05 12:18:01;;;;;;;10.77;2.15;;;8.00;99.90;;;;;;5005624;28;20045;-62
2023/03/05 12:20:52;;;;;;;9.43;1.85;;;8.10;99.90;;;;;;5007908;28;20062;-62
2023/03/05 12:23:20;;;;;;;4.47;1.60;;;8.40;99.90;;;;;;5010423;28;20049;-62
2023/03/05 12:25:51;;;;;;;6.72;1.77;;;8.10;99.90;;;;;;5006276;28;20085;-62
2023/03/05 12:28:32;;;;;;;5.82;1.65;;;8.20;99.90;;;;;;5000107;28;20367;-62
2023/03/05 12:31:00;;;;;;;5.75;1.50;;;8.00;88.60;;;;;;5008207;28;20038;-62
2023/03/05 12:33:42;;;;;;;7.63;1.77;;;8.10;83.30;;;;;;5007003;28;20042;-68
2023/03/05 12:36:19;;;;;;;12.43;1.88;;;8.00;75.40;;;;;;5006659;28;20096;-61
2023/03/05 12:38:55;;;;;;;6.07;1.70;;;8.00;93.00;;;;;;5009556;28;20046;-62
2023/03/05 12:41:21;;;;;;;;;;;8.40;95.60;;;;;;5009682;28;20561;-62
2023/03/05 12:44:06;;;;;;;8.03;1.63;;;8.20;90.50;;;;;;5007246;28;19917;-62
2023/03/05 12:46:34;;;;;;;6.38;1.60;;;8.20;82.60;;;;;;5006642;28;20053;-62
2023/03/05 12:49:25;;;;;;;7.07;1.75;;;8.30;76.60;;;;;;5007544;28;20159;-62
2023/03/05 12:51:54;;;;;;;8.85;1.55;;;8.40;40.80;;;;;;5000583;28;20670;-62
2023/03/05 12:54:32;;;;;;;7.45;2.10;;;8.30;25.70;;;;;;5001157;28;20065;-62
2023/03/05 12:57:01;;;;;;;9.43;2.10;;;8.00;26.60;;;;;;5002367;28;20049;-62
2023/03/05 12:59:42;;;;;;;5.72;1.52;;;8.30;36.50;;;;;;5003956;28;20038;-61
2023/03/05 13:02:25;;;;;;;6.60;1.77;;;8.40;48.00;;;;;;5006775;28;20042;-62
2023/03/05 13:04:55;;;;;;;6.50;1.55;;;8.20;44.30;;;;;;5007687;28;20045;-62